Time;durP1;ratioP1;P1;durP2;ratioP2;P2;SDS_P1;SDS_P2;PMS_P1;PMS_P2;Temp;Humidity;BMP_temperature;BMP_pressure;BME280_temperature;BME280_humidity;BME280_pressure;Samples;Min_cycle;Max_cycle;Signal;HPM_P1;HPM_P2
2022/05/09 00:02:32;;;;;;;16.75;7.92;;;;;;;10.61;64.24;101264.87;2042481;87;28207;-60
2022/05/09 00:05:35;;;;;;;11.90;7.92;;;;;;;10.63;64.25;101267.03;2042213;87;29383;-60
2022/05/09 00:08:37;;;;;;;15.28;8.75;;;;;;;10.66;64.21;101272.30;2042414;87;31893;-60
2022/05/09 00:11:40;;;;;;;10.95;7.90;;;;;;;10.69;64.28;101272.64;2042331;87;33850;-60
2022/05/09 00:14:42;;;;;;;19.37;8.35;;;;;;;10.74;64.25;101278.73;2042318;87;28813;-61
2022/05/09 00:17:45;;;;;;;14.25;8.13;;;;;;;10.79;63.96;101276.30;2042251;87;27707;-60
2022/05/09 00:20:50;;;;;;;15.83;8.18;;;;;;;10.83;63.98;101278.88;2042355;87;28810;-60
2022/05/09 00:23:52;;;;;;;14.25;8.15;;;;;;;10.87;63.66;101274.69;2042722;87;31376;-60
2022/05/09 00:26:54;;;;;;;14.80;8.10;;;;;;;10.90;63.94;101283.11;2042151;87;34280;-61
2022/05/09 00:29:57;;;;;;;14.63;7.55;;;;;;;10.92;63.52;101284.80;2042170;87;30160;-60
2022/05/09 00:32:59;;;;;;;17.42;7.67;;;;;;;10.95;63.35;101282.45;2042480;87;27662;-61
2022/05/09 00:36:00;;;;;;;15.48;8.08;;;;;;;10.98;63.33;101290.87;2042517;87;29069;-60
2022/05/09 00:39:03;;;;;;;14.00;7.15;;;;;;;10.99;63.13;101284.11;2042648;87;32194;-60
2022/05/09 00:42:12;;;;;;;17.05;7.97;;;;;;;11.04;63.16;101287.95;2042333;87;33815;-60
2022/05/09 00:45:15;;;;;;;13.55;7.62;;;;;;;11.07;62.62;101283.83;2042420;87;29491;-60
2022/05/09 00:48:17;;;;;;;18.62;7.90;;;;;;;11.12;62.64;101286.34;2043002;87;27585;-60
2022/05/09 00:51:24;;;;;;;16.23;7.33;;;;;;;11.12;62.31;101287.23;2042203;87;29546;-60
2022/05/09 00:54:29;;;;;;;12.73;6.62;;;;;;;11.12;62.17;101295.28;2042604;87;31401;-60
2022/05/09 00:57:39;;;;;;;15.98;7.70;;;;;;;11.10;62.12;101290.44;2040439;87;33764;-61
2022/05/09 01:00:44;;;;;;;14.50;6.47;;;;;;;11.07;61.82;101289.20;2013464;88;29355;-60
2022/05/09 01:03:51;;;;;;;14.63;6.90;;;;;;;11.05;61.81;101296.41;2014722;88;27714;-60
2022/05/09 01:06:54;;;;;;;11.57;7.05;;;;;;;11.03;61.92;101301.84;2014569;88;28691;-61
2022/05/09 01:09:57;;;;;;;12.88;6.60;;;;;;;10.99;61.59;101304.22;2014694;88;32211;-60
2022/05/09 01:13:08;;;;;;;10.13;7.05;;;;;;;10.95;61.47;101302.56;2014679;88;34181;-60
2022/05/09 01:16:12;;;;;;;11.18;7.00;;;;;;;10.92;61.37;101306.72;2014970;88;29470;-61
2022/05/09 01:19:28;;;;;;;14.15;6.78;;;;;;;10.88;61.34;101305.06;2014905;88;27628;-61
2022/05/09 01:22:34;;;;;;;15.45;6.55;;;;;;;10.86;61.40;101305.58;2014863;88;29257;-61
2022/05/09 01:25:38;;;;;;;17.12;7.12;;;;;;;10.84;61.17;101307.44;2014565;88;31067;-62
2022/05/09 01:28:40;;;;;;;15.80;6.70;;;;;;;10.79;61.02;101308.46;2016043;88;34127;-61
2022/05/09 01:31:43;;;;;;;14.95;7.65;;;;;;;10.74;61.07;101306.42;2014594;88;30663;-62
2022/05/09 01:34:50;;;;;;;14.98;6.80;;;;;;;10.70;61.02;101312.81;2014637;88;27686;-63
2022/05/09 01:37:57;;;;;;;11.30;6.15;;;;;;;10.64;60.96;101313.90;2014591;87;28663;-61
2022/05/09 01:40:59;;;;;;;16.07;6.60;;;;;;;10.58;60.99;101316.77;2013834;88;32437;-63
2022/05/09 01:44:01;;;;;;;13.48;6.45;;;;;;;10.53;60.96;101325.41;2014708;88;33777;-62
2022/05/09 01:50:25;;;;;;;14.38;6.72;;;;;;;10.41;61.26;101335.20;2014687;88;27762;-63
2022/05/09 01:53:27;;;;;;;13.43;6.55;;;;;;;10.31;61.14;101331.45;2014518;88;29548;-65
2022/05/09 01:56:32;;;;;;;15.65;6.95;;;;;;;10.24;61.29;101332.56;2014545;88;31116;-63
2022/05/09 01:59:34;;;;;;;14.40;7.28;;;;;;;10.16;61.33;101338.16;2032472;87;33603;-63
2022/05/09 02:02:36;;;;;;;17.77;7.33;;;;;;;10.11;61.44;101339.23;2042190;87;30641;-67
2022/05/09 02:05:38;;;;;;;20.17;7.35;;;;;;;10.02;61.47;101334.56;2042272;87;27696;-67
2022/05/09 02:08:41;;;;;;;12.60;7.00;;;;;;;9.96;61.62;101335.22;2042212;87;29986;-66
2022/05/09 02:11:43;;;;;;;18.98;7.55;;;;;;;9.88;61.65;101335.45;2042215;87;31897;-66
2022/05/09 02:14:46;;;;;;;18.65;8.05;;;;;;;9.84;61.75;101334.67;2042478;87;34064;-66
2022/05/09 02:17:48;;;;;;;16.05;7.00;;;;;;;9.78;61.79;101338.86;2042319;87;30135;-65
2022/05/09 02:20:51;;;;;;;18.17;7.53;;;;;;;9.72;62.02;101332.37;2042500;87;27684;-64
2022/05/09 02:23:53;;;;;;;14.58;7.25;;;;;;;9.68;62.00;101328.87;2042586;87;28680;-64
2022/05/09 02:26:57;;;;;;;20.37;7.15;;;;;;;9.63;61.97;101333.52;2042095;87;32300;-63
2022/05/09 02:29:59;;;;;;;21.77;6.87;;;;;;;9.58;61.99;101337.66;2042522;87;32927;-64
2022/05/09 02:33:01;;;;;;;23.27;7.60;;;;;;;9.54;62.07;101340.45;2042304;87;29801;-65
2022/05/09 02:36:04;;;;;;;16.97;7.00;;;;;;;9.50;62.13;101349.03;2042486;87;27692;-65
2022/05/09 02:39:05;;;;;;;15.60;6.83;;;;;;;9.46;62.24;101348.69;2042492;87;28818;-65
2022/05/09 02:42:08;;;;;;;15.30;7.15;;;;;;;9.43;62.22;101352.81;2042143;87;32295;-65
2022/05/09 02:45:12;;;;;;;15.85;7.70;;;;;;;9.41;62.31;101356.84;2042103;87;33606;-66
2022/05/09 02:48:14;;;;;;;12.43;6.10;;;;;;;9.40;62.35;101360.91;2040918;87;30118;-65
2022/05/09 02:51:17;;;;;;;15.98;6.70;;;;;;;9.37;62.40;101357.84;2040790;87;28236;-66
2022/05/09 02:54:19;;;;;;;15.40;6.45;;;;;;;9.34;62.44;101359.73;2040677;87;28713;-64
2022/05/09 02:57:20;;;;;;;14.33;6.62;;;;;;;9.32;62.48;101353.11;2040285;87;32252;-64
2022/05/09 03:00:26;;;;;;;17.87;6.92;;;;;;;9.30;62.43;101349.59;2032663;87;33107;-62
2022/05/09 03:06:49;;;;;;;15.80;6.67;;;;;;;9.27;62.56;101355.02;2030248;87;27697;-67
2022/05/09 03:09:51;;;;;;;19.65;6.97;;;;;;;9.25;62.56;101352.84;2029893;87;29922;-66
2022/05/09 03:12:53;;;;;;;17.90;6.65;;;;;;;9.24;62.63;101357.33;2030358;87;31093;-65
2022/05/09 03:15:58;;;;;;;14.20;6.17;;;;;;;9.26;62.69;101363.52;2029961;87;33726;-67
2022/05/09 03:19:00;;;;;;;13.90;6.20;;;;;;;9.25;62.63;101357.75;2030408;87;30121;-62
2022/05/09 03:22:03;;;;;;;13.62;6.67;;;;;;;9.27;62.60;101361.70;2035055;87;27708;-62
2022/05/09 03:25:06;;;;;;;15.83;6.78;;;;;;;9.27;62.59;101369.25;2035989;87;28174;-63
2022/05/09 03:28:13;;;;;;;12.98;6.08;;;;;;;9.29;62.64;101370.56;2035605;87;31047;-62
2022/05/09 03:31:15;;;;;;;12.28;6.03;;;;;;;9.31;62.71;101377.20;2030519;86;33017;-63
2022/05/09 03:34:17;;;;;;;14.90;7.15;;;;;;;9.29;62.64;101374.58;2032679;87;30167;-63
2022/05/09 03:37:19;;;;;;;17.80;6.22;;;;;;;9.32;62.70;101380.29;2030123;87;27708;-62
2022/05/09 03:40:21;;;;;;;16.95;7.15;;;;;;;9.34;62.59;101383.80;2029863;87;29926;-65
2022/05/09 03:43:24;;;;;;;13.80;6.75;;;;;;;9.35;62.64;101386.90;2029924;87;31405;-64
2022/05/09 03:46:27;;;;;;;14.40;6.47;;;;;;;9.35;62.74;101392.25;2034844;87;34151;-64
2022/05/09 03:49:29;;;;;;;16.82;7.05;;;;;;;9.35;62.74;101389.09;2035935;87;29402;-64
2022/05/09 03:52:31;;;;;;;13.55;6.45;;;;;;;9.35;62.70;101393.11;2036033;87;27644;-65
2022/05/09 03:55:33;;;;;;;13.98;6.80;;;;;;;9.35;62.61;101391.77;2035430;87;29984;-63
2022/05/09 03:58:35;;;;;;;16.20;7.10;;;;;;;9.38;62.56;101397.05;2035452;87;31931;-66
2022/05/09 04:01:38;;;;;;;11.30;6.37;;;;;;;9.41;62.55;101401.45;2035757;87;33476;-63
2022/05/09 04:04:40;;;;;;;14.85;6.55;;;;;;;9.42;62.52;101396.52;2035658;87;29409;-63
2022/05/09 04:07:48;;;;;;;20.32;6.60;;;;;;;9.46;62.42;101394.16;2035896;87;27668;-66
2022/05/09 04:10:53;;;;;;;14.23;6.78;;;;;;;9.52;62.41;101399.80;2034360;87;28669;-62
2022/05/09 04:13:55;;;;;;;18.25;6.67;;;;;;;9.57;62.39;101399.22;2030015;87;31998;-62
2022/05/09 04:16:57;;;;;;;15.80;6.10;;;;;;;9.62;62.42;101397.75;2029576;87;34198;-65
2022/05/09 04:19:59;;;;;;;13.45;6.20;;;;;;;9.65;62.27;101396.33;2029734;87;30646;-62
2022/05/09 04:23:02;;;;;;;15.88;6.35;;;;;;;9.70;62.29;101397.09;2030271;87;27645;-63
2022/05/09 04:26:05;;;;;;;12.58;6.22;;;;;;;9.76;62.26;101401.38;2030597;87;29035;-62
2022/05/09 04:29:07;;;;;;;13.28;6.62;;;;;;;9.80;62.20;101407.94;2030313;87;31016;-65
2022/05/09 04:32:09;;;;;;;14.53;6.25;;;;;;;9.84;62.16;101408.75;2029298;87;33791;-64
2022/05/09 04:35:21;;;;;;;18.40;6.60;;;;;;;9.89;62.09;101413.48;2030881;87;30170;-67
2022/05/09 04:38:24;;;;;;;19.48;7.10;;;;;;;9.96;62.04;101411.50;2033984;87;27642;-63
2022/05/09 04:41:27;;;;;;;19.20;6.72;;;;;;;10.08;61.98;101419.20;2030084;87;29866;-66
2022/05/09 04:44:30;;;;;;;14.15;6.60;;;;;;;10.24;61.79;101419.60;2029335;87;30914;-62
2022/05/09 04:47:32;;;;;;;13.98;6.12;;;;;;;10.73;61.96;101423.05;2030097;87;33041;-62
2022/05/09 04:50:34;;;;;;;13.78;5.70;;;;;;;11.83;61.91;101414.78;2029866;87;30534;-62
2022/05/09 04:53:37;;;;;;;12.00;5.65;;;;;;;13.12;60.62;101421.02;2030428;87;27732;-64
2022/05/09 04:56:39;;;;;;;12.65;4.83;;;;;;;14.34;59.40;101421.44;2029443;86;29554;-62
2022/05/09 04:59:41;;;;;;;12.33;5.50;;;;;;;15.38;57.82;101417.25;2029759;86;32102;-62
2022/05/09 05:02:43;;;;;;;9.30;6.15;;;;;;;16.45;57.08;101416.09;2029934;87;34196;-63
2022/05/09 05:05:45;;;;;;;13.58;6.45;;;;;;;17.33;54.56;101414.17;2029853;87;30388;-63
2022/05/09 05:08:47;;;;;;;13.68;5.25;;;;;;;17.82;51.79;101423.36;2029914;86;27808;-64
2022/05/09 05:11:49;;;;;;;8.30;5.03;;;;;;;18.31;52.76;101426.67;2030464;87;29841;-63
2022/05/09 05:14:51;;;;;;;10.30;6.10;;;;;;;18.89;51.32;101423.83;2030786;87;32037;-64
2022/05/09 05:17:54;;;;;;;14.13;5.97;;;;;;;19.36;49.90;101421.62;2035735;87;34329;-63
2022/05/09 05:20:55;;;;;;;9.33;5.25;;;;;;;19.66;48.70;101420.45;2036017;87;29436;-63
2022/05/09 05:23:59;;;;;;;10.53;4.95;;;;;;;20.02;48.69;101428.38;2036192;87;27605;-62
2022/05/09 05:27:01;;;;;;;14.07;5.85;;;;;;;20.16;47.73;101428.72;2036064;87;29899;-63
2022/05/09 05:30:06;;;;;;;13.22;5.83;;;;;;;20.34;46.36;101434.70;2036422;86;32019;-63
2022/05/09 05:33:07;;;;;;;13.15;6.47;;;;;;;20.32;46.08;101437.51;2034625;87;33070;-65
2022/05/09 05:36:10;;;;;;;10.18;5.60;;;;;;;20.31;45.62;101433.55;2034088;87;30532;-63
2022/05/09 05:39:15;;;;;;;16.67;6.10;;;;;;;20.28;45.54;101441.43;2032154;87;27656;-63
2022/05/09 05:42:18;;;;;;;11.20;5.65;;;;;;;20.42;45.47;101434.98;2030243;86;29297;-62
2022/05/09 05:45:23;;;;;;;13.48;5.80;;;;;;;20.53;44.82;101440.13;2030379;87;31043;-62
2022/05/09 05:48:25;;;;;;;10.80;5.75;;;;;;;20.72;45.05;101434.20;2030289;87;32968;-61
2022/05/09 05:51:27;;;;;;;14.55;5.87;;;;;;;20.91;44.23;101433.71;2029908;87;30546;-64
2022/05/09 05:54:29;;;;;;;14.10;5.30;;;;;;;21.00;42.70;101433.51;2030301;87;27665;-62
2022/05/09 05:57:34;;;;;;;11.83;4.75;;;;;;;20.97;41.15;101438.70;2030164;87;29910;-61
2022/05/09 06:00:36;;;;;;;10.05;5.42;;;;;;;20.71;41.27;101435.19;2035592;87;31035;-65
2022/05/09 06:03:51;;;;;;;11.53;5.15;;;;;;;20.89;41.69;101439.29;2041995;87;33000;-62
2022/05/09 06:06:55;;;;;;;14.45;5.58;;;;;;;21.24;41.76;101438.46;2064980;86;27716;-65
2022/05/09 06:09:58;;;;;;;12.65;5.37;;;;;;;21.65;40.83;101441.72;2051672;86;27732;-62
2022/05/09 06:13:03;;;;;;;14.85;5.75;;;;;;;22.14;41.07;101436.06;2051665;86;29113;-65
2022/05/09 06:16:05;;;;;;;13.20;6.00;;;;;;;22.74;39.40;101435.77;2082054;84;31121;-63
2022/05/09 06:19:09;;;;;;;14.20;5.28;;;;;;;23.31;39.89;101434.23;2103648;84;35035;-63
2022/05/09 06:22:12;;;;;;;13.88;5.62;;;;;;;23.97;38.54;101442.17;2104159;84;28791;-62
2022/05/09 06:25:18;;;;;;;13.73;5.67;;;;;;;24.56;38.13;101442.42;2104270;84;27711;-65
2022/05/09 06:28:20;;;;;;;13.10;5.30;;;;;;;24.80;37.35;101443.08;2103629;84;29509;-67
2022/05/09 06:31:22;;;;;;;10.75;4.83;;;;;;;25.13;36.77;101447.80;2103487;84;32288;-65
2022/05/09 06:34:25;;;;;;;9.38;5.50;;;;;;;25.72;36.25;101451.89;2103870;84;33048;-67
2022/05/09 06:37:49;;;;;;;11.90;5.20;;;;;;;26.22;35.02;101443.38;2083392;84;30130;-62
2022/05/09 06:40:52;;;;;;;8.90;4.42;;;;;;;26.28;34.66;101439.16;2069129;86;27816;-61
2022/05/09 06:43:54;;;;;;;10.88;5.80;;;;;;;26.42;33.01;101451.54;2068725;86;28785;-62
2022/05/09 06:46:57;;;;;;;15.03;5.70;;;;;;;26.42;33.01;101451.54;2068924;86;31026;-64
2022/05/09 06:50:06;;;;;;;11.18;5.35;;;;;;;26.64;33.83;101457.66;2068618;86;33169;-62
2022/05/09 06:53:10;;;;;;;17.73;5.30;;;;;;;26.67;32.42;101454.08;2101965;84;29402;-62
2022/05/09 06:56:12;;;;;;;8.33;5.40;;;;;;;26.72;32.70;101460.48;2094933;84;27766;-61
2022/05/09 06:59:15;;;;;;;9.90;4.72;;;;;;;26.89;32.30;101453.82;2062966;86;29436;-61
2022/05/09 07:02:18;;;;;;;15.53;5.08;;;;;;;27.22;31.69;101461.03;2063140;86;31380;-62
2022/05/09 07:05:22;;;;;;;12.13;5.20;;;;;;;27.33;31.83;101459.40;2062650;86;33652;-61
2022/05/09 07:08:29;;;;;;;;;;;;;;;27.71;31.87;101456.48;2066015;86;29391;-61
2022/05/09 07:11:29;;;;;;;9.73;4.55;;;;;;;28.07;30.12;101448.61;2057243;86;33153;-63
2022/05/09 07:14:32;;;;;;;10.20;4.70;;;;;;;28.34;30.67;101451.72;2051755;86;29527;-61
2022/05/09 07:17:40;;;;;;;11.20;4.40;;;;;;;28.34;29.60;101458.08;2052040;86;30732;-62
2022/05/09 07:20:56;;;;;;;7.12;4.42;;;;;;;28.47;28.64;101452.11;2038686;86;29392;-66
2022/05/09 07:24:01;;;;;;;10.30;5.25;;;;;;;28.69;29.26;101455.80;2051429;86;30219;-66
2022/05/09 07:27:04;;;;;;;9.98;5.05;;;;;;;28.68;28.70;101460.46;2059604;86;27752;-63
2022/05/09 07:30:08;;;;;;;8.40;4.72;;;;;;;28.61;28.38;101462.14;2069524;85;28734;-64
2022/05/09 07:33:14;;;;;;;10.40;4.53;;;;;;;28.38;28.41;101459.98;2069184;85;31101;-63
2022/05/09 07:36:15;;;;;;;13.45;5.60;;;;;;;28.45;28.86;101458.30;2068645;84;33786;-64
2022/05/09 07:39:17;;;;;;;7.42;4.55;;;;;;;28.47;28.48;101455.36;2069678;85;30292;-61
2022/05/09 07:42:20;;;;;;;13.65;4.95;;;;;;;28.41;27.23;101448.62;2071435;85;27629;-61
2022/05/09 07:45:22;;;;;;;7.55;4.67;;;;;;;28.41;28.00;101456.90;2071304;86;29472;-61
2022/05/09 07:48:26;;;;;;;11.73;4.65;;;;;;;28.43;28.12;101454.84;2070100;85;30903;-61
2022/05/09 07:51:28;;;;;;;7.85;4.72;;;;;;;28.47;27.76;101449.36;2069403;85;33898;-61
2022/05/09 07:54:30;;;;;;;8.20;4.30;;;;;;;28.54;27.30;101454.21;2069558;86;30479;-61
2022/05/09 07:57:32;;;;;;;13.58;5.12;;;;;;;28.53;26.21;101449.20;2066810;85;27786;-61
2022/05/09 08:00:34;;;;;;;10.88;5.40;;;;;;;28.10;27.34;101447.80;2071272;86;30222;-61
2022/05/09 08:03:38;;;;;;;13.25;4.58;;;;;;;28.17;27.77;101451.64;2071165;85;32279;-61
2022/05/09 08:06:41;;;;;;;;;;;;;;;28.25;27.72;101452.19;2073621;86;33854;-61
2022/05/09 08:09:43;;;;;;;7.60;4.30;;;;;;;28.39;27.93;101448.45;2071939;85;29952;-61
2022/05/09 08:12:47;;;;;;;13.95;4.67;;;;;;;28.49;27.86;101448.67;2071487;85;27700;-61
2022/05/09 08:15:49;;;;;;;;;;;;;;;28.68;27.94;101452.69;2073759;86;29920;-62
2022/05/09 08:18:51;;;;;;;11.60;5.00;;;;;;;28.63;26.77;101448.53;2070813;86;32259;-61
2022/05/09 08:21:55;;;;;;;8.05;4.17;;;;;;;28.37;27.01;101451.89;2069247;86;33990;-61
2022/05/09 08:24:59;;;;;;;12.13;4.37;;;;;;;28.19;26.66;101447.33;2069744;85;30126;-61
2022/05/09 08:28:04;;;;;;;7.83;3.58;;;;;;;28.25;26.99;101450.81;2066035;86;27680;-62
2022/05/09 08:31:05;;;;;;;;;;;;;;;28.14;25.98;101445.07;2067961;86;29084;-61
2022/05/09 08:34:08;;;;;;;12.35;4.45;;;;;;;27.67;25.21;101455.92;2076875;85;32245;-61
2022/05/09 08:37:10;;;;;;;9.95;3.40;;;;;;;27.27;26.14;101453.17;2076873;85;34168;-61
2022/05/09 08:40:13;;;;;;;6.67;3.62;;;;;;;27.22;26.10;101447.27;2067921;85;30672;-61
2022/05/09 08:43:39;;;;;;;12.15;4.15;;;;;;;27.38;25.81;101446.03;2062367;86;27613;-61
2022/05/09 08:47:15;;;;;;;9.00;4.33;;;;;;;27.20;26.17;101448.81;2062415;86;29052;-61
2022/05/09 08:50:31;;;;;;;9.58;3.50;;;;;;;27.07;25.51;101452.45;2061936;86;32273;-62
2022/05/09 08:53:39;;;;;;;5.92;3.00;;;;;;;26.68;25.46;101457.19;2063043;86;33755;-60
2022/05/09 08:56:42;;;;;;;7.83;3.05;;;;;;;26.31;25.82;101458.09;2067440;85;29335;-61
2022/05/09 08:59:57;;;;;;;6.83;3.30;;;;;;;26.38;26.42;101452.36;2067351;86;27693;-62
2022/05/09 09:03:34;;;;;;;8.05;3.30;;;;;;;26.36;25.73;101458.52;2066178;86;29467;-62
2022/05/09 09:07:09;;;;;;;7.50;3.10;;;;;;;26.05;25.18;101456.50;2066070;86;32280;-61
2022/05/09 09:10:32;;;;;;;7.35;3.65;;;;;;;25.76;26.18;101458.30;2065569;85;32951;-61
2022/05/09 09:14:10;;;;;;;11.28;3.83;;;;;;;25.46;26.21;101458.86;2026396;87;30350;-61
2022/05/09 09:17:43;;;;;;;8.10;3.08;;;;;;;25.31;26.43;101452.94;1994562;89;27780;-62
2022/05/09 09:21:12;;;;;;;7.53;3.40;;;;;;;24.86;26.74;101457.56;1994172;89;29546;-63
2022/05/09 09:24:43;;;;;;;9.73;3.80;;;;;;;24.68;27.26;101452.73;1991600;88;31114;-62
2022/05/09 09:27:53;;;;;;;9.40;3.40;;;;;;;24.66;26.96;101456.12;1990394;89;33386;-62
2022/05/09 09:30:57;;;;;;;7.58;3.33;;;;;;;24.57;27.48;101459.20;1966368;90;29351;-62
2022/05/09 09:34:21;;;;;;;7.93;3.40;;;;;;;24.41;26.85;101455.62;1966792;90;28402;-62
2022/05/09 09:37:34;;;;;;;13.65;3.87;;;;;;;24.09;26.90;101456.65;1965630;90;28819;-62
2022/05/09 09:40:38;;;;;;;5.72;3.27;;;;;;;23.80;27.33;101451.86;1970670;88;31917;-61
2022/05/09 09:43:41;;;;;;;12.05;4.03;;;;;;;23.68;28.00;101451.54;1972130;90;33303;-61
2022/05/09 09:47:15;;;;;;;8.08;3.35;;;;;;;23.48;27.33;101457.38;1971955;90;30184;-61
2022/05/09 09:50:24;;;;;;;12.03;3.90;;;;;;;23.14;27.71;101453.40;1987696;88;27696;-61
2022/05/09 09:53:44;;;;;;;11.80;3.27;;;;;;;22.70;28.02;101452.92;2020335;87;28816;-61
2022/05/09 09:56:47;;;;;;;8.75;3.47;;;;;;;22.42;28.40;101448.34;2017729;87;31868;-65
2022/05/09 09:59:49;;;;;;;13.32;3.85;;;;;;;22.30;29.04;101444.75;2033441;87;33206;-61
2022/05/09 10:02:54;;;;;;;7.92;3.55;;;;;;;22.22;28.58;101451.31;2033811;87;29338;-61
2022/05/09 10:05:56;;;;;;;;;;;;;;;22.12;28.95;101440.77;2036305;87;27546;-62
2022/05/09 10:09:09;;;;;;;8.45;3.52;;;;;;;22.10;28.98;101446.34;2026776;87;29265;-61
2022/05/09 10:12:25;;;;;;;7.55;3.85;;;;;;;22.02;29.03;101448.83;2068189;86;31423;-61
2022/05/09 10:15:39;;;;;;;11.65;3.58;;;;;;;22.04;29.33;101438.66;2067800;86;33021;-62
2022/05/09 10:18:43;;;;;;;10.38;4.03;;;;;;;22.15;29.92;101439.17;2066258;86;30179;-62
2022/05/09 10:25:11;;;;;;;8.35;4.15;;;;;;;22.16;29.87;101435.45;2064325;86;29126;-61
2022/05/09 10:28:18;;;;;;;12.43;3.67;;;;;;;22.29;29.72;101438.03;2067397;85;31147;-61
2022/05/09 10:31:30;;;;;;;9.30;2.95;;;;;;;22.34;29.62;101440.41;2067898;86;33843;-63
2022/05/09 10:34:46;;;;;;;8.68;3.60;;;;;;;22.36;29.75;101428.83;2068296;86;30477;-61
2022/05/09 10:38:08;;;;;;;9.03;3.30;;;;;;;22.39;29.44;101439.03;2068424;86;27661;-61
2022/05/09 10:41:24;;;;;;;7.78;3.20;;;;;;;22.41;29.20;101430.22;2070577;84;29890;-62
2022/05/09 10:44:44;;;;;;;11.15;3.27;;;;;;;22.31;29.34;101419.19;2045970;87;32210;-61
2022/05/09 10:48:13;;;;;;;11.93;3.98;;;;;;;22.20;29.47;101417.80;2045962;86;32416;-61
2022/05/09 10:51:19;;;;;;;7.08;3.40;;;;;;;22.27;29.52;101424.52;2040089;87;29817;-61
2022/05/09 10:54:36;;;;;;;6.87;3.00;;;;;;;22.26;29.76;101419.16;2040655;87;27671;-61
2022/05/09 10:57:49;;;;;;;7.87;3.15;;;;;;;22.33;29.98;101411.37;2045694;85;29905;-61
2022/05/09 11:01:02;;;;;;;8.58;3.25;;;;;;;22.56;30.32;101417.69;2043811;85;31920;-62
2022/05/09 11:04:05;;;;;;;9.43;3.67;;;;;;;22.82;30.24;101410.53;2044688;86;34312;-66
2022/05/09 11:07:30;;;;;;;6.30;2.92;;;;;;;23.00;30.00;101408.98;2045660;86;30738;-63
2022/05/09 11:10:50;;;;;;;7.15;3.65;;;;;;;23.01;28.55;101406.62;2046271;86;27602;-62
2022/05/09 11:14:16;;;;;;;8.10;2.95;;;;;;;22.76;29.77;101413.29;2046218;86;29579;-63
2022/05/09 11:17:57;;;;;;;9.98;3.40;;;;;;;22.68;30.00;101401.64;2045897;86;31456;-61
2022/05/09 11:21:34;;;;;;;6.72;3.10;;;;;;;22.48;29.92;101396.48;2045767;87;34189;-61
2022/05/09 11:24:59;;;;;;;6.72;3.60;;;;;;;22.37;30.16;101395.97;2018884;86;29767;-61
2022/05/09 11:28:34;;;;;;;6.35;2.98;;;;;;;22.29;30.44;101403.42;2015122;88;27728;-60
2022/05/09 11:31:47;;;;;;;7.85;3.52;;;;;;;22.24;30.37;101395.24;2015065;88;29993;-60
2022/05/09 11:35:07;;;;;;;10.95;3.27;;;;;;;22.10;30.11;101399.09;2014828;88;31488;-60
2022/05/09 11:38:42;;;;;;;8.55;3.10;;;;;;;21.98;30.34;101390.91;2014811;88;33838;-60
2022/05/09 11:43:27;;;;;;;7.95;3.12;;;;;;;22.02;30.61;101391.52;2044434;86;29419;-60
2022/05/09 11:45:29;;;;;;;6.40;3.40;;;;;;;21.99;30.54;101385.83;2048494;86;27756;-60
2022/05/09 11:49:24;;;;;;;7.90;3.42;;;;;;;21.94;30.53;101383.96;2033895;87;29543;-60
2022/05/09 11:52:30;;;;;;;6.30;3.05;;;;;;;21.95;30.34;101374.78;2020193;87;31944;-60
2022/05/09 11:55:33;;;;;;;8.55;3.52;;;;;;;22.06;30.66;101371.67;2004094;88;32983;-61
2022/05/09 11:58:38;;;;;;;9.43;3.33;;;;;;;22.16;30.44;101374.04;2003998;88;30146;-61
2022/05/09 12:02:05;;;;;;;5.97;3.37;;;;;;;22.07;30.29;101367.47;2004193;88;27754;-61
2022/05/09 12:05:59;;;;;;;8.60;3.35;;;;;;;21.98;30.37;101373.66;2003725;88;29736;-61
2022/05/09 12:09:03;;;;;;;9.78;4.35;;;;;;;21.94;29.98;101367.59;1995899;89;32331;-62
2022/05/09 12:12:06;;;;;;;7.17;3.27;;;;;;;21.87;30.65;101362.24;1995953;89;32868;-63
2022/05/09 12:15:19;;;;;;;10.88;3.35;;;;;;;21.87;30.76;101364.97;2004699;87;30361;-61
2022/05/09 12:18:35;;;;;;;10.50;3.40;;;;;;;21.86;30.52;101357.78;2028640;87;27688;-61
2022/05/09 12:21:37;;;;;;;6.03;3.05;;;;;;;21.90;30.70;101353.81;2024300;87;29513;-61
2022/05/09 12:24:42;;;;;;;11.38;3.17;;;;;;;21.96;30.52;101361.52;1979412;87;32507;-61
2022/05/09 12:28:08;;;;;;;7.33;2.90;;;;;;;21.96;30.41;101355.17;1971528;90;34253;-61
2022/05/09 12:31:38;;;;;;;5.30;3.10;;;;;;;21.93;30.71;101352.69;1968958;90;30559;-61
2022/05/09 12:34:45;;;;;;;9.45;3.05;;;;;;;21.80;30.11;101350.96;2002671;88;27780;-61
2022/05/09 12:37:47;;;;;;;6.65;3.08;;;;;;;21.65;30.33;101358.53;2009688;88;28637;-61
2022/05/09 12:41:04;;;;;;;5.00;3.00;;;;;;;21.59;30.50;101354.04;2035086;87;32035;-60
2022/05/09 12:44:18;;;;;;;7.87;3.62;;;;;;;21.55;30.68;101347.45;2034803;86;33188;-61
2022/05/09 12:47:25;;;;;;;6.47;3.30;;;;;;;21.59;30.74;101344.50;2035617;87;29338;-61
2022/05/09 12:50:34;;;;;;;7.62;3.05;;;;;;;21.65;30.58;101335.84;2034883;86;27862;-61
2022/05/09 12:53:37;;;;;;;5.35;2.50;;;;;;;21.65;30.90;101342.66;2034997;87;29807;-61
2022/05/09 12:56:47;;;;;;;6.30;3.67;;;;;;;21.59;31.05;101337.67;2035014;87;32469;-61
2022/05/09 12:59:52;;;;;;;9.55;2.87;;;;;;;21.45;30.56;101338.25;2051925;86;34282;-61
2022/05/09 13:02:54;;;;;;;8.78;3.33;;;;;;;21.29;30.82;101333.64;2053144;86;30521;-61
2022/05/09 13:05:56;;;;;;;9.13;3.52;;;;;;;21.12;30.99;101330.89;2035124;87;27695;-60
2022/05/09 13:09:00;;;;;;;9.73;3.08;;;;;;;21.01;31.07;101322.19;2037451;87;29960;-60
2022/05/09 13:12:13;;;;;;;7.60;3.90;;;;;;;21.03;31.07;101318.34;2035635;87;31629;-60
2022/05/09 13:15:20;;;;;;;7.72;3.08;;;;;;;21.12;31.29;101309.95;2036755;87;33757;-61
2022/05/09 13:18:28;;;;;;;4.83;2.50;;;;;;;21.19;31.09;101300.31;2036798;87;27746;-60
2022/05/09 13:21:39;;;;;;;8.83;3.17;;;;;;;21.29;31.61;101300.94;2037596;87;27719;-60
2022/05/09 13:24:43;;;;;;;7.37;3.02;;;;;;;21.36;31.45;101303.56;2004971;88;28639;-62
2022/05/09 13:27:51;;;;;;;5.67;3.33;;;;;;;21.35;30.63;101305.91;2005250;88;31029;-61
2022/05/09 13:30:56;;;;;;;6.30;2.85;;;;;;;21.23;30.78;101290.03;2004936;88;33709;-60
2022/05/09 13:34:00;;;;;;;6.83;2.98;;;;;;;21.09;30.21;101297.44;2004999;88;33115;-60
2022/05/09 13:37:05;;;;;;;;;;;;;;;20.93;30.17;101287.37;2007704;88;27818;-61
2022/05/09 13:40:10;;;;;;;7.20;2.60;;;;;;;20.88;30.92;101282.77;1983671;88;29486;-60
2022/05/09 13:43:18;;;;;;;7.25;2.80;;;;;;;20.86;30.92;101278.81;2004432;88;32165;-61
2022/05/09 13:46:34;;;;;;;5.83;2.50;;;;;;;20.81;30.95;101273.35;2004859;88;33025;-60
2022/05/09 13:49:38;;;;;;;5.83;2.67;;;;;;;20.79;30.96;101272.09;2005171;88;29402;-61
2022/05/09 13:52:49;;;;;;;7.03;3.02;;;;;;;20.78;31.10;101272.59;2017412;87;27702;-61
2022/05/09 13:55:52;;;;;;;7.28;3.00;;;;;;;20.83;31.16;101256.41;2037797;87;28655;-61
2022/05/09 13:59:05;;;;;;;8.95;3.40;;;;;;;20.93;30.98;101252.81;2044972;85;31046;-61
2022/05/09 14:02:10;;;;;;;5.92;3.02;;;;;;;21.03;30.83;101248.02;2071577;85;33133;-61
2022/05/09 14:05:22;;;;;;;6.50;2.80;;;;;;;21.11;30.72;101238.72;2071723;85;29346;-61
2022/05/09 14:08:27;;;;;;;7.40;3.25;;;;;;;21.18;30.69;101246.80;2069773;85;27748;-62
2022/05/09 14:11:33;;;;;;;7.08;2.95;;;;;;;21.22;30.60;101238.77;2069006;86;29643;-62
2022/05/09 14:14:41;;;;;;;8.55;2.77;;;;;;;21.21;30.55;101234.30;2069151;86;31037;-62
2022/05/09 14:18:05;;;;;;;7.17;3.45;;;;;;;21.14;30.72;101234.41;2068689;85;33766;-61
2022/05/09 14:21:16;;;;;;;5.42;2.92;;;;;;;21.08;30.74;101225.38;2069286;86;30287;-61
2022/05/09 14:24:27;;;;;;;17.52;2.92;;;;;;;21.04;30.88;101221.16;2031705;87;28229;-62
2022/05/09 14:30:50;;;;;;;4.90;2.87;;;;;;;20.98;30.86;101221.15;2035166;87;32265;-61
2022/05/09 14:33:53;;;;;;;4.60;2.52;;;;;;;20.91;31.12;101212.59;2035378;87;33762;-61
2022/05/09 14:37:21;;;;;;;12.60;3.22;;;;;;;20.90;30.79;101216.78;2035467;87;29367;-62
2022/05/09 14:40:30;;;;;;;7.08;3.10;;;;;;;20.90;30.44;101221.75;2035057;87;27756;-62
2022/05/09 14:43:32;;;;;;;7.58;2.75;;;;;;;20.86;30.80;101216.64;2049448;86;29628;-63
2022/05/09 14:46:43;;;;;;;9.53;3.22;;;;;;;20.88;31.06;101224.20;2069173;86;31240;-62